Time;durP1;ratioP1;P1;durP2;ratioP2;P2;SDS_P1;SDS_P2;PMS_P1;PMS_P2;Temp;Humidity;BMP_temperature;BMP_pressure;BME280_temperature;BME280_humidity;BME280_pressure;Samples;Min_cycle;Max_cycle;Signal;HPM_P1;HPM_P2
2021/12/20 00:04:08;;;;;;;20.27;2.38;;;;;;;5.07;89.84;102736.03;10457828;28;20056;-83
2021/12/20 00:09:10;;;;;;;21.30;2.45;;;;;;;5.04;89.40;102733.25;10458012;28;20127;-83
2021/12/20 00:14:12;;;;;;;8.45;1.70;;;;;;;5.06;89.47;102731.72;10459205;28;20066;-83
2021/12/20 00:19:14;;;;;;;11.50;1.83;;;;;;;4.95;89.59;102735.09;10458848;28;20427;-83
2021/12/20 00:24:17;;;;;;;14.25;2.33;;;;;;;4.93;89.62;102732.41;10456556;28;20058;-82
2021/12/20 00:29:18;;;;;;;20.55;2.50;;;;;;;4.92;89.67;102732.28;10458943;28;20056;-82
2021/12/20 00:34:20;;;;;;;16.52;2.22;;;;;;;4.90;89.57;102726.16;10461048;28;20036;-82
2021/12/20 00:44:42;;;;;;;19.08;2.17;;;;;;;4.92;88.78;102729.75;10473923;28;20036;-82
2021/12/20 00:49:44;;;;;;;17.50;2.53;;;;;;;4.87;88.55;102720.84;10469729;28;20450;-83
2021/12/20 00:54:46;;;;;;;18.52;2.50;;;;;;;4.90;88.61;102719.41;10468879;28;20048;-83
2021/12/20 00:59:47;;;;;;;12.27;2.15;;;;;;;4.84;88.38;102708.69;10475684;28;20044;-82
2021/12/20 01:04:49;;;;;;;17.13;2.50;;;;;;;4.87;88.35;102713.16;10446243;28;20044;-82
2021/12/20 01:09:53;;;;;;;25.35;2.85;;;;;;;4.86;88.38;102721.59;10471210;28;20064;-83
2021/12/20 01:14:59;;;;;;;18.48;2.25;;;;;;;4.78;88.61;102727.75;10474083;28;20140;-82
2021/12/20 01:20:10;;;;;;;12.85;2.15;;;;;;;4.74;88.56;102727.50;10485257;28;20506;-82
2021/12/20 01:25:13;;;;;;;22.08;2.67;;;;;;;4.74;88.49;102735.16;10474295;28;20415;-82
2021/12/20 01:30:18;;;;;;;14.55;2.40;;;;;;;4.73;89.01;102727.41;10460454;28;20387;-82
2021/12/20 01:35:22;;;;;;;23.23;2.63;;;;;;;4.76;87.95;102731.09;10492774;28;20053;-82
2021/12/20 01:40:25;;;;;;;25.60;3.40;;;;;;;4.71;88.38;102724.72;10470100;28;20053;-82
2021/12/20 01:45:28;;;;;;;20.85;3.00;;;;;;;4.72;87.57;102729.06;10482541;28;20056;-82
2021/12/20 01:51:33;;;;;;;21.63;2.90;;;;;;;4.69;87.33;102723.72;10488273;28;20051;-82
2021/12/20 01:55:57;;;;;;;14.20;2.50;;;;;;;4.69;87.89;102723.72;10468877;28;20681;-82
2021/12/20 02:06:18;;;;;;;19.17;2.03;;;;;;;4.62;87.81;102724.00;10487406;28;20044;-82
2021/12/20 02:11:20;;;;;;;24.63;3.28;;;;;;;4.72;87.69;102718.88;10477735;28;20056;-82
2021/12/20 02:16:22;;;;;;;15.90;2.05;;;;;;;4.71;87.25;102711.97;10481457;28;20531;-82
2021/12/20 02:21:24;;;;;;;19.20;2.20;;;;;;;4.69;87.37;102713.50;10477768;28;20057;-82
2021/12/20 02:26:26;;;;;;;21.92;2.25;;;;;;;4.60;87.33;102722.97;10478763;28;20048;-82
2021/12/20 02:41:56;;;;;;;18.42;2.30;;;;;;;4.60;85.86;102710.22;10470531;28;19924;-81
2021/12/20 02:52:05;;;;;;;28.40;3.92;;;;;;;4.58;85.31;102701.53;10492899;28;20064;-82
2021/12/20 02:57:07;;;;;;;23.30;3.33;;;;;;;4.52;86.70;102703.59;10473734;28;20048;-82
2021/12/20 03:02:11;;;;;;;26.25;2.75;;;;;;;4.52;86.59;102704.50;10473511;28;20049;-82
2021/12/20 03:07:20;;;;;;;24.02;3.03;;;;;;;4.52;86.16;102707.06;10477932;28;20446;-81
2021/12/20 03:12:25;;;;;;;22.60;2.85;;;;;;;4.48;87.16;102706.69;10491118;28;20047;-81
2021/12/20 03:17:27;;;;;;;29.92;2.60;;;;;;;4.49;86.34;102708.47;10463203;28;20399;-81
2021/12/20 03:22:29;;;;;;;25.55;2.45;;;;;;;4.46;86.62;102709.13;10477374;28;20036;-81
2021/12/20 03:27:31;;;;;;;25.75;2.83;;;;;;;4.50;86.35;102710.25;10456005;28;20048;-81
2021/12/20 03:32:35;;;;;;;20.45;2.80;;;;;;;4.45;86.82;102705.66;10470290;28;20193;-81
2021/12/20 03:37:36;;;;;;;15.10;2.10;;;;;;;4.48;86.22;102706.69;10461362;28;20483;-81
2021/12/20 03:42:42;;;;;;;14.48;1.95;;;;;;;4.31;87.40;102713.88;10492041;28;20047;-81
2021/12/20 03:47:44;;;;;;;19.38;2.30;;;;;;;4.33;88.12;102707.25;10477385;28;20048;-81
2021/12/20 03:52:46;;;;;;;30.60;2.80;;;;;;;4.36;87.01;102717.69;10474560;28;20044;-81
2021/12/20 03:57:48;;;;;;;19.40;2.97;;;;;;;4.38;86.80;102721.25;10460800;28;20048;-81
2021/12/20 04:02:49;;;;;;;13.23;1.98;;;;;;;4.48;86.94;102710.13;10473649;28;20044;-82
2021/12/20 04:07:51;;;;;;;22.80;2.80;;;;;;;4.40;86.77;102706.97;10455659;28;20048;-82
2021/12/20 04:12:53;;;;;;;22.00;2.58;;;;;;;4.40;86.96;102714.63;10459223;28;20491;-82
2021/12/20 04:17:54;;;;;;;19.52;2.40;;;;;;;4.33;86.28;102717.47;10469128;28;20159;-81
2021/12/20 04:22:56;;;;;;;20.40;2.80;;;;;;;4.33;85.98;102717.47;10471546;28;20057;-81
2021/12/20 04:27:58;;;;;;;19.08;2.85;;;;;;;4.43;86.69;102722.50;10465950;28;20048;-82
2021/12/20 04:33:00;;;;;;;24.98;2.78;;;;;;;4.35;86.16;102713.38;10488909;28;20071;-82
2021/12/20 04:38:03;;;;;;;21.95;2.65;;;;;;;4.33;85.43;102712.34;10453632;28;20453;-81
2021/12/20 04:43:06;;;;;;;26.55;3.08;;;;;;;4.30;86.69;102722.31;10490960;28;20057;-81
2021/12/20 04:48:07;;;;;;;16.30;2.80;;;;;;;4.25;86.20;102718.50;10491269;28;20053;-82
2021/12/20 04:53:11;;;;;;;24.17;2.67;;;;;;;4.28;86.47;102718.75;10469086;28;20037;-82
2021/12/20 04:58:14;;;;;;;13.95;2.35;;;;;;;4.34;86.34;102724.34;10471688;28;20538;-82
2021/12/20 05:03:16;;;;;;;18.95;2.78;;;;;;;4.26;86.85;102720.28;10453876;28;20052;-82
2021/12/20 05:08:19;;;;;;;23.42;3.22;;;;;;;4.20;86.81;102717.25;10475187;28;20045;-82
2021/12/20 05:13:21;;;;;;;17.98;2.08;;;;;;;4.16;86.53;102707.53;10466647;28;20055;-82
2021/12/20 05:18:22;;;;;;;23.35;3.03;;;;;;;4.15;87.04;102715.94;10455064;28;20064;-82
2021/12/20 05:23:24;;;;;;;22.10;3.45;;;;;;;4.12;87.19;102707.31;10453284;28;20439;-82
2021/12/20 05:28:26;;;;;;;22.50;2.20;;;;;;;3.95;88.14;102726.31;10477858;28;20384;-82
2021/12/20 05:33:28;;;;;;;13.13;2.33;;;;;;;4.02;87.64;102730.25;10470281;28;20057;-82
2021/12/20 05:38:29;;;;;;;15.95;2.33;;;;;;;3.95;87.94;102738.19;10457541;28;20048;-82
2021/12/20 05:43:31;;;;;;;14.23;2.40;;;;;;;4.04;87.87;102740.59;10473552;28;20051;-82
2021/12/20 05:48:33;;;;;;;15.30;1.90;;;;;;;4.00;87.56;102744.53;10468314;28;20036;-82
2021/12/20 05:53:37;;;;;;;23.73;2.67;;;;;;;4.05;87.99;102750.94;10481485;28;20056;-82
2021/12/20 05:58:39;;;;;;;14.13;2.10;;;;;;;3.94;87.65;102756.78;10477621;28;20045;-82
2021/12/20 06:03:43;;;;;;;20.83;2.28;;;;;;;3.88;87.47;102752.06;10472236;28;20052;-82
2021/12/20 06:08:45;;;;;;;18.10;2.33;;;;;;;3.91;87.28;102751.47;10457073;28;20557;-82
2021/12/20 06:13:47;;;;;;;25.25;3.28;;;;;;;3.88;87.09;102746.97;10478542;28;20075;-82
2021/12/20 06:18:51;;;;;;;24.20;2.85;;;;;;;3.87;86.68;102754.50;10480479;28;20044;-82
2021/12/20 06:23:53;;;;;;;21.23;2.75;;;;;;;3.89;86.64;102755.53;10473136;28;20120;-82
2021/12/20 06:28:55;;;;;;;21.30;3.45;;;;;;;3.89;86.18;102764.06;10462276;28;20045;-82
2021/12/20 06:33:56;;;;;;;19.17;2.72;;;;;;;3.87;86.05;102764.69;10459445;28;20137;-82
2021/12/20 06:38:58;;;;;;;18.48;2.22;;;;;;;3.83;85.99;102777.97;10458042;28;20047;-82
2021/12/20 06:44:02;;;;;;;20.88;2.90;;;;;;;3.79;86.20;102782.81;10488018;28;20102;-82
2021/12/20 06:49:05;;;;;;;22.55;2.63;;;;;;;3.75;86.02;102775.69;10489405;28;20051;-82
2021/12/20 06:54:12;;;;;;;16.35;1.88;;;;;;;3.69;85.27;102785.34;10495248;28;20053;-82
2021/12/20 06:59:16;;;;;;;28.58;2.67;;;;;;;3.59;85.64;102790.44;10472905;28;20058;-82
2021/12/20 07:04:18;;;;;;;20.75;2.83;;;;;;;3.52;85.18;102780.50;10477342;28;20059;-82
2021/12/20 07:09:19;;;;;;;17.48;2.65;;;;;;;3.39;86.19;102798.94;10474772;28;20040;-82
2021/12/20 07:14:26;;;;;;;16.48;2.42;;;;;;;3.23;87.66;102795.06;10473499;28;20048;-82
2021/12/20 07:19:28;;;;;;;17.77;2.35;;;;;;;3.10;87.64;102794.75;10474501;28;20044;-81
2021/12/20 07:24:29;;;;;;;20.77;2.80;;;;;;;3.07;87.74;102797.94;10473580;28;20056;-81
2021/12/20 07:29:31;;;;;;;18.88;2.35;;;;;;;3.05;87.92;102807.09;10472925;28;20044;-81
2021/12/20 07:34:33;;;;;;;23.92;3.92;;;;;;;3.09;87.91;102800.63;10461830;28;20450;-81
2021/12/20 07:39:35;;;;;;;18.27;2.88;;;;;;;2.92;87.38;102804.25;10454695;28;20133;-81
2021/12/20 07:44:37;;;;;;;21.00;2.63;;;;;;;2.89;87.83;102806.50;10451880;28;20048;-81
2021/12/20 07:49:38;;;;;;;18.80;2.70;;;;;;;2.72;89.06;102800.81;10461586;28;20049;-81
2021/12/20 07:54:40;;;;;;;21.85;2.40;;;;;;;2.72;89.04;102807.56;10482325;28;20090;-81
2021/12/20 07:59:42;;;;;;;11.93;2.03;;;;;;;2.70;89.28;102810.00;10442958;28;20049;-82
2021/12/20 08:04:49;;;;;;;20.02;2.33;;;;;;;2.62;89.24;102816.94;10465865;28;20044;-82
2021/12/20 08:09:51;;;;;;;10.85;2.05;;;;;;;2.49;89.66;102817.50;10458901;28;20096;-82
2021/12/20 08:14:52;;;;;;;15.70;2.25;;;;;;;2.47;89.17;102825.72;10452935;28;20496;-81
2021/12/20 08:19:54;;;;;;;12.40;1.80;;;;;;;2.37;89.92;102826.56;10449171;28;20404;-81
2021/12/20 08:24:56;;;;;;;13.18;2.30;;;;;;;2.35;90.19;102834.06;10457945;28;20399;-81
2021/12/20 08:29:58;;;;;;;18.77;2.85;;;;;;;2.32;90.49;102843.94;10473933;28;20041;-81
2021/12/20 08:34:59;;;;;;;19.75;4.03;;;;;;;2.24;91.38;102844.00;10457728;28;20045;-81
2021/12/20 08:40:03;;;;;;;17.60;2.80;;;;;;;2.31;91.50;102846.34;10470850;28;20041;-81
2021/12/20 08:45:06;;;;;;;23.60;3.08;;;;;;;2.35;91.19;102850.97;10450876;28;20049;-81
2021/12/20 08:50:12;;;;;;;23.48;3.20;;;;;;;2.33;90.72;102860.13;10481602;28;20044;-80
2021/12/20 08:55:14;;;;;;;25.05;2.80;;;;;;;2.40;91.66;102862.47;10465840;28;20053;-80
2021/12/20 09:00:26;;;;;;;20.27;3.28;;;;;;;2.46;91.73;102869.72;10459033;28;20500;-80
2021/12/20 09:05:29;;;;;;;24.92;3.63;;;;;;;2.54;91.69;102866.22;10440665;28;20051;-80
2021/12/20 09:10:32;;;;;;;23.98;3.72;;;;;;;2.59;92.43;102870.13;10467965;28;20052;-80
2021/12/20 09:15:34;;;;;;;41.10;5.28;;;;;;;2.62;92.43;102874.56;10463472;28;20041;-80
2021/12/20 09:20:37;;;;;;;23.60;4.22;;;;;;;2.73;92.66;102873.00;10470926;28;20115;-80
2021/12/20 09:25:43;;;;;;;24.17;4.97;;;;;;;2.80;92.33;102871.13;10461725;28;20029;-80
2021/12/20 09:30:46;;;;;;;36.20;5.53;;;;;;;2.88;91.84;102881.09;10467552;28;20041;-80
2021/12/20 09:35:50;;;;;;;32.55;5.38;;;;;;;3.00;91.91;102874.56;10495872;28;20044;-80
2021/12/20 09:46:09;;;;;;;23.45;4.63;;;;;;;3.14;91.35;102881.75;10478349;28;20053;-80
2021/12/20 09:51:11;;;;;;;26.20;4.72;;;;;;;3.17;91.43;102879.47;10468195;28;20040;-80
2021/12/20 09:56:14;;;;;;;31.00;4.85;;;;;;;3.21;91.15;102874.66;10486623;28;20061;-79
2021/12/20 10:01:18;;;;;;;29.55;4.82;;;;;;;3.27;91.34;102876.09;10524480;28;20044;-81
2021/12/20 10:06:21;;;;;;;29.77;5.20;;;;;;;3.34;90.96;102882.59;10461187;28;20395;-81
2021/12/20 10:11:25;;;;;;;22.05;4.38;;;;;;;3.36;90.99;102878.53;10448263;28;20044;-80
2021/12/20 10:16:26;;;;;;;20.98;4.55;;;;;;;3.47;91.23;102885.44;10478341;28;20053;-80
2021/12/20 10:21:37;;;;;;;31.92;5.32;;;;;;;3.52;90.72;102890.06;10474082;28;20048;-81
2021/12/20 10:26:42;;;;;;;36.70;6.00;;;;;;;3.60;90.61;102886.53;10490586;28;20071;-81
2021/12/20 10:31:45;;;;;;;28.02;4.72;;;;;;;3.65;90.34;102887.81;10451810;28;20067;-80
2021/12/20 10:36:53;;;;;;;34.38;4.80;;;;;;;3.77;90.03;102887.97;10474445;28;20518;-80
2021/12/20 10:41:54;;;;;;;34.15;5.07;;;;;;;3.93;90.26;102892.72;10474854;28;20047;-80
2021/12/20 10:46:56;;;;;;;35.75;6.10;;;;;;;4.02;89.34;102893.50;10484466;28;20052;-80
2021/12/20 10:51:59;;;;;;;31.08;6.43;;;;;;;4.33;87.60;102896.09;10468886;28;20612;-81
2021/12/20 10:57:05;;;;;;;34.72;8.43;;;;;;;4.79;87.08;102883.66;10464548;28;20053;-80
2021/12/20 11:12:26;;;;;;;48.67;8.52;;;;;;;5.72;84.51;102873.97;10483180;28;20040;-81
2021/12/20 11:17:30;;;;;;;44.45;8.18;;;;;;;5.67;83.99;102879.47;10461832;28;20045;-80
2021/12/20 11:22:33;;;;;;;45.70;8.95;;;;;;;5.97;83.40;102875.84;10454137;28;20045;-80
2021/12/20 11:27:42;;;;;;;33.55;7.03;;;;;;;5.94;82.43;102872.19;10458170;28;20052;-81
2021/12/20 11:32:46;;;;;;;31.80;7.32;;;;;;;6.31;82.16;102872.44;10494549;28;20047;-80
2021/12/20 11:37:48;;;;;;;42.97;8.45;;;;;;;6.62;79.94;102862.78;10462175;28;20045;-79
2021/12/20 11:42:50;;;;;;;54.08;9.43;;;;;;;6.43;79.86;102869.91;10471255;28;20487;-80
2021/12/20 11:47:59;;;;;;;35.42;8.90;;;;;;;6.47;78.20;102867.69;10469878;28;20507;-80
2021/12/20 11:53:13;;;;;;;41.53;10.65;;;;;;;6.98;76.90;102862.81;10465082;28;20041;-80
2021/12/20 11:58:21;;;;;;;50.25;11.20;;;;;;;7.30;76.28;102866.75;10470607;28;20496;-80
2021/12/20 12:03:25;;;;;;;36.45;7.93;;;;;;;7.06;76.24;102856.56;10498846;28;20045;-79
2021/12/20 12:08:59;;;;;;;41.60;9.60;;;;;;;7.42;76.60;102856.47;10449106;28;20076;-80
2021/12/20 12:14:33;;;;;;;49.03;10.18;;;;;;;7.47;74.17;102860.28;10487455;28;20036;-80
2021/12/20 12:19:52;;;;;;;41.38;8.30;;;;;;;7.37;72.55;102860.41;10463712;28;20040;-79
2021/12/20 12:24:55;;;;;;;32.28;7.10;;;;;;;7.47;73.04;102857.72;10491495;28;20040;-80
2021/12/20 12:30:12;;;;;;;31.38;6.30;;;;;;;7.32;72.02;102856.63;10476411;28;20052;-80
2021/12/20 12:35:39;;;;;;;28.92;5.22;;;;;;;7.55;70.95;102847.97;10452596;28;20052;-80
2021/12/20 12:40:49;;;;;;;31.60;4.63;;;;;;;7.27;68.64;102852.06;10453508;28;20502;-80
2021/12/20 12:45:59;;;;;;;15.80;4.33;;;;;;;7.31;69.07;102850.59;10465275;28;20048;-80
2021/12/20 12:51:19;;;;;;;18.90;4.10;;;;;;;7.32;67.43;102848.94;10449489;28;20045;-80
2021/12/20 12:56:27;;;;;;;20.67;4.50;;;;;;;7.22;69.60;102852.53;10463917;28;20118;-79
2021/12/20 13:01:29;;;;;;;18.90;3.78;;;;;;;7.29;67.87;102853.06;10471969;28;20064;-80
2021/12/20 13:06:31;;;;;;;19.45;4.53;;;;;;;7.58;67.92;102848.19;10468841;28;20048;-80
2021/12/20 13:11:33;;;;;;;20.33;4.22;;;;;;;7.46;67.74;102843.09;10471922;28;20082;-79
2021/12/20 13:16:38;;;;;;;13.82;3.72;;;;;;;7.39;65.43;102852.03;10463316;28;20506;-80
2021/12/20 13:27:31;;;;;;;16.77;3.58;;;;;;;6.98;64.16;102853.44;10457367;28;20033;-80
2021/12/20 13:32:33;;;;;;;12.75;2.85;;;;;;;6.98;65.07;102852.56;10471219;28;20506;-79
2021/12/20 13:37:39;;;;;;;11.15;3.53;;;;;;;6.83;65.99;102847.19;10478571;28;20140;-79
2021/12/20 13:42:51;;;;;;;16.23;3.55;;;;;;;6.99;64.04;102856.91;10468546;28;20506;-79
2021/12/20 13:47:53;;;;;;;11.93;3.10;;;;;;;6.92;62.08;102847.88;10485315;28;20418;-79
2021/12/20 13:52:55;;;;;;;17.05;3.33;;;;;;;6.46;61.70;102841.94;10482278;28;20072;-79
2021/12/20 13:57:56;;;;;;;10.43;2.78;;;;;;;6.21;66.24;102842.69;10486558;28;20048;-80
2021/12/20 14:03:00;;;;;;;9.15;2.63;;;;;;;5.71;67.51;102844.03;10480242;28;20123;-78
2021/12/20 14:08:02;;;;;;;10.18;2.50;;;;;;;5.46;65.37;102848.03;10484446;28;20049;-79
2021/12/20 14:13:06;;;;;;;11.07;2.42;;;;;;;5.28;64.75;102855.16;10468953;28;20067;-79
2021/12/20 14:18:13;;;;;;;11.00;2.65;;;;;;;5.13;65.00;102852.25;10489817;28;20051;-79
2021/12/20 14:23:34;;;;;;;13.07;2.38;;;;;;;5.01;65.79;102847.97;10459608;28;20049;-79
2021/12/20 14:28:45;;;;;;;8.98;2.22;;;;;;;4.84;65.87;102840.63;10469730;28;20056;-79
2021/12/20 14:33:56;;;;;;;12.55;2.45;;;;;;;4.59;67.71;102848.84;10483890;28;20052;-79
2021/12/20 14:39:07;;;;;;;14.52;3.50;;;;;;;4.41;70.82;102838.91;10503165;28;20049;-79
2021/12/20 14:44:15;;;;;;;12.20;2.83;;;;;;;4.25;72.63;102840.97;10501574;28;20113;-79
2021/12/20 14:49:20;;;;;;;8.52;2.72;;;;;;;4.07;74.06;102859.06;10472731;28;20040;-79
2021/12/20 14:54:24;;;;;;;15.65;3.03;;;;;;;3.85;75.15;102845.28;10501331;28;20045;-79
2021/12/20 14:59:31;;;;;;;13.88;3.22;;;;;;;3.71;75.13;102849.22;10501070;28;20044;-78
2021/12/20 15:04:33;;;;;;;14.57;3.70;;;;;;;3.55;75.64;102852.09;10484751;28;20045;-78
2021/12/20 15:09:35;;;;;;;14.30;3.30;;;;;;;3.48;75.33;102851.56;10489986;28;20470;-78
2021/12/20 15:14:37;;;;;;;11.88;3.28;;;;;;;3.40;74.91;102844.91;10502155;28;20083;-79
2021/12/20 15:19:38;;;;;;;11.60;3.45;;;;;;;3.22;76.20;102845.88;10483065;28;20053;-79
2021/12/20 15:24:40;;;;;;;11.73;3.20;;;;;;;3.03;75.82;102833.19;10501798;28;20059;-78
2021/12/20 15:29:42;;;;;;;14.88;3.67;;;;;;;2.76;77.37;102843.63;10491024;28;20484;-78
2021/12/20 15:34:47;;;;;;;15.02;3.50;;;;;;;2.45;79.92;102840.88;10442140;28;20492;-78
2021/12/20 15:39:49;;;;;;;17.17;3.17;;;;;;;2.29;79.90;102855.50;10458681;28;20099;-78
2021/12/20 15:44:52;;;;;;;12.23;3.10;;;;;;;2.07;80.91;102856.06;10441690;28;20053;-78
2021/12/20 15:49:55;;;;;;;22.02;3.47;;;;;;;1.81;81.99;102852.03;10457992;28;20045;-77
2021/12/20 15:54:56;;;;;;;10.75;3.10;;;;;;;1.64;81.03;102845.34;10441478;28;20102;-77
2021/12/20 15:59:58;;;;;;;10.65;3.10;;;;;;;1.48;80.66;102844.69;10457915;28;20052;-77
2021/12/20 16:05:01;;;;;;;11.23;3.60;;;;;;;1.47;80.80;102832.75;10441016;28;20060;-77
2021/12/20 16:10:05;;;;;;;14.88;3.75;;;;;;;1.36;82.42;102836.81;10444980;28;20045;-79
2021/12/20 16:15:07;;;;;;;11.80;3.15;;;;;;;1.07;83.58;102840.03;10491866;28;20435;-78
2021/12/20 16:21:13;;;;;;;17.00;3.97;;;;;;;1.09;82.35;102839.41;10481542;28;20047;-77
2021/12/20 16:26:15;;;;;;;12.82;3.28;;;;;;;0.89;82.90;102837.50;10456731;28;20048;-78
2021/12/20 16:31:17;;;;;;;13.77;3.17;;;;;;;0.78;83.76;102840.66;10456135;28;20052;-78
2021/12/20 16:36:18;;;;;;;10.85;3.05;;;;;;;0.55;85.63;102838.41;10456445;28;20044;-77
2021/12/20 16:41:20;;;;;;;10.93;3.40;;;;;;;0.45;85.83;102840.03;10439533;28;20094;-77
2021/12/20 16:46:25;;;;;;;10.00;2.88;;;;;;;0.35;86.92;102847.50;10457261;28;20049;-77
2021/12/20 16:51:31;;;;;;;13.25;3.70;;;;;;;0.26;86.74;102852.53;10455946;28;20061;-77
2021/12/20 16:56:43;;;;;;;18.27;5.03;;;;;;;0.13;85.73;102847.00;10457236;28;20044;-77
2021/12/20 17:01:45;;;;;;;19.52;5.15;;;;;;;0.05;86.65;102843.72;10441258;28;20136;-77
2021/12/20 17:06:47;;;;;;;15.27;3.53;;;;;;;-0.08;87.53;102846.66;10463746;28;20139;-77
2021/12/20 17:11:52;;;;;;;13.07;3.20;;;;;;;-0.26;88.93;102842.28;10496663;28;20144;-77
2021/12/20 17:16:54;;;;;;;14.70;3.70;;;;;;;-0.41;89.06;102852.63;10496589;28;20048;-77
2021/12/20 17:21:56;;;;;;;14.52;5.50;;;;;;;-0.42;89.29;102855.91;10498411;28;20040;-77
2021/12/20 17:26:57;;;;;;;17.42;5.53;;;;;;;-0.56;88.07;102861.22;10478641;28;20169;-77
2021/12/20 17:31:59;;;;;;;18.33;6.75;;;;;;;-0.59;87.91;102855.81;10456342;28;20055;-77
2021/12/20 17:37:01;;;;;;;17.02;7.35;;;;;;;-0.62;88.57;102865.63;10438458;28;20431;-77
2021/12/20 17:42:03;;;;;;;23.85;8.50;;;;;;;-0.71;88.50;102868.97;10461994;28;20049;-77
2021/12/20 17:47:05;;;;;;;23.80;11.43;;;;;;;-0.90;89.43;102872.88;10501835;28;20050;-77
2021/12/20 17:52:08;;;;;;;38.95;19.92;;;;;;;-1.07;89.71;102876.19;10470243;28;20037;-77
2021/12/20 17:57:10;;;;;;;30.33;13.70;;;;;;;-1.24;89.83;102871.91;10497707;28;20123;-76
2021/12/20 18:02:15;;;;;;;22.42;5.85;;;;;;;-1.54;89.87;102880.56;10504386;28;20044;-77
2021/12/20 18:07:18;;;;;;;10.55;4.18;;;;;;;-1.66;90.68;102882.66;10505096;28;20041;-78
2021/12/20 18:12:20;;;;;;;18.23;6.93;;;;;;;-1.63;90.71;102886.41;10487562;28;20131;-76
2021/12/20 18:17:22;;;;;;;15.77;5.30;;;;;;;-1.66;90.33;102877.63;10503719;28;20517;-77
2021/12/20 18:22:25;;;;;;;14.02;5.10;;;;;;;-1.68;89.96;102887.56;10485658;28;20044;-77
2021/12/20 18:27:27;;;;;;;16.90;6.35;;;;;;;-1.70;91.73;102881.44;10513421;28;20090;-78
2021/12/20 18:32:29;;;;;;;20.75;8.45;;;;;;;-1.77;91.41;102884.03;10507490;28;20411;-77
2021/12/20 18:37:31;;;;;;;22.17;4.88;;;;;;;-1.75;92.16;102880.06;10503860;28;20059;-76
2021/12/20 18:42:32;;;;;;;16.10;4.93;;;;;;;-1.74;91.95;102879.31;10485538;28;20051;-77
2021/12/20 18:47:34;;;;;;;24.65;7.05;;;;;;;-1.86;92.05;102880.53;10493028;28;20072;-77
2021/12/20 18:52:40;;;;;;;17.73;5.22;;;;;;;-1.96;90.89;102879.50;10458904;28;20076;-77
2021/12/20 18:58:00;;;;;;;14.30;4.05;;;;;;;-2.03;91.71;102877.06;10462085;28;20059;-77
2021/12/20 19:03:06;;;;;;;11.55;4.30;;;;;;;-2.05;92.56;102875.09;10461331;28;20033;-77
2021/12/20 19:08:27;;;;;;;10.63;3.33;;;;;;;-2.15;91.97;102870.69;10457172;28;20484;-78
2021/12/20 19:13:55;;;;;;;8.68;2.97;;;;;;;-2.30;92.60;102883.44;10442872;28;20156;-76
2021/12/20 19:18:59;;;;;;;6.20;3.20;;;;;;;-2.36;92.15;102886.91;10501792;28;20051;-77
2021/12/20 19:24:03;;;;;;;11.13;4.40;;;;;;;-2.42;91.85;102882.97;10502341;28;20063;-76
2021/12/20 19:29:08;;;;;;;18.13;6.50;;;;;;;-2.42;92.53;102889.66;10484374;28;20082;-77
2021/12/20 19:34:10;;;;;;;17.48;7.60;;;;;;;-2.41;92.31;102883.84;10501553;28;20507;-77
2021/12/20 19:39:15;;;;;;;19.15;7.53;;;;;;;-2.38;93.37;102884.22;10483268;28;20056;-76
2021/12/20 19:44:19;;;;;;;15.43;7.10;;;;;;;-2.44;92.77;102886.06;10501156;28;20044;-77
2021/12/20 19:49:21;;;;;;;25.20;7.22;;;;;;;-2.47;93.02;102885.72;10499914;28;20051;-77
2021/12/20 19:54:25;;;;;;;17.98;7.28;;;;;;;-2.38;93.37;102885.84;10482788;28;20040;-76
2021/12/20 19:59:28;;;;;;;22.10;7.18;;;;;;;-2.49;92.83;102870.41;10482867;28;20044;-76
2021/12/20 20:04:35;;;;;;;20.33;7.47;;;;;;;-2.49;92.09;102874.53;10482310;28;20048;-76
2021/12/20 20:09:38;;;;;;;13.75;4.65;;;;;;;-2.58;91.80;102877.88;10498990;28;20388;-76
2021/12/20 20:14:41;;;;;;;11.50;6.07;;;;;;;-2.66;92.09;102881.16;10499441;28;20053;-77
2021/12/20 20:19:42;;;;;;;17.67;5.80;;;;;;;-2.67;92.23;102886.03;10500437;28;20407;-76
2021/12/20 20:24:54;;;;;;;12.27;5.40;;;;;;;-2.65;93.07;102892.13;10481924;28;20454;-77
2021/12/20 20:29:56;;;;;;;18.02;6.05;;;;;;;-2.66;92.48;102885.28;10515281;28;20036;-77
2021/12/20 20:35:32;;;;;;;26.23;6.90;;;;;;;-2.64;93.43;102884.72;10502618;28;20055;-76
2021/12/20 20:40:34;;;;;;;13.95;5.22;;;;;;;-2.65;93.41;102887.09;10498178;28;20487;-76
2021/12/20 20:45:37;;;;;;;13.95;4.93;;;;;;;-2.71;92.98;102877.22;10481043;28;20051;-76
2021/12/20 20:50:40;;;;;;;18.70;6.80;;;;;;;-2.80;92.58;102869.53;10480889;28;20044;-76
2021/12/20 20:55:43;;;;;;;11.55;5.32;;;;;;;-2.87;93.54;102878.03;10480781;28;20071;-76
2021/12/20 21:06:06;;;;;;;15.73;5.55;;;;;;;-2.90;93.99;102880.22;10498593;28;20044;-76
2021/12/20 21:11:12;;;;;;;18.33;6.93;;;;;;;-2.90;93.66;102881.81;10480422;28;20480;-76
2021/12/20 21:16:14;;;;;;;16.75;6.60;;;;;;;-2.92;93.77;102881.66;10496396;28;20049;-76
2021/12/20 21:21:15;;;;;;;19.25;7.00;;;;;;;-3.08;93.60;102883.19;10497611;28;20054;-76
2021/12/20 21:26:17;;;;;;;19.40;6.35;;;;;;;-3.19;93.03;102880.34;10478635;28;20049;-76
2021/12/20 21:31:19;;;;;;;13.00;5.00;;;;;;;-3.16;93.18;102889.00;10484428;28;20048;-76
2021/12/20 21:36:21;;;;;;;8.23;4.43;;;;;;;-3.30;93.20;102887.44;10479435;28;20052;-76
2021/12/20 21:41:23;;;;;;;8.93;4.93;;;;;;;-3.29;93.38;102882.53;10479478;28;20418;-77
2021/12/20 21:46:25;;;;;;;16.05;6.13;;;;;;;-3.30;93.65;102890.84;10496328;28;20040;-76
2021/12/20 21:51:27;;;;;;;14.65;6.13;;;;;;;-3.38;92.92;102881.50;10479422;28;20052;-77
2021/12/20 21:57:19;;;;;;;10.43;5.28;;;;;;;-3.33;93.15;102880.41;10479401;28;20045;-77
2021/12/20 22:02:21;;;;;;;;;;;;;;;-3.40;93.74;102878.81;10496595;28;20081;-77
2021/12/20 22:07:22;;;;;;;20.85;9.45;;;;;;;-3.41;93.91;102877.00;10497142;28;19921;-76
2021/12/20 22:12:24;;;;;;;26.42;11.00;;;;;;;-3.46;93.41;102879.75;10497107;28;20392;-77
2021/12/20 22:17:26;;;;;;;19.08;7.15;;;;;;;-3.51;93.13;102880.09;10496048;28;20045;-77
2021/12/20 22:22:31;;;;;;;15.98;6.32;;;;;;;-3.55;93.07;102875.44;10506194;28;20036;-77
2021/12/20 22:27:32;;;;;;;14.52;6.90;;;;;;;-3.56;93.38;102883.72;10509614;28;20049;-77
2021/12/20 22:32:35;;;;;;;18.10;8.57;;;;;;;-3.59;92.95;102880.84;10486097;28;20047;-76
2021/12/20 22:37:36;;;;;;;20.00;8.55;;;;;;;-3.60;93.72;102874.00;10502428;28;20491;-76
2021/12/20 22:42:38;;;;;;;17.75;8.07;;;;;;;-3.53;94.12;102876.50;10502727;28;20484;-77
2021/12/20 22:47:40;;;;;;;33.70;11.05;;;;;;;-3.59;93.58;102879.97;10485649;28;20036;-77
2021/12/20 22:52:42;;;;;;;20.35;9.10;;;;;;;-3.68;93.13;102869.69;10502703;28;20083;-77
2021/12/20 22:57:47;;;;;;;14.23;6.30;;;;;;;-3.65;92.94;102862.50;10502206;28;20044;-77
2021/12/20 23:02:49;;;;;;;15.05;6.20;;;;;;;-3.70;93.94;102858.56;10502693;28;20047;-77
2021/12/20 23:07:52;;;;;;;18.08;6.50;;;;;;;-3.78;93.14;102855.16;10502600;28;20131;-77
2021/12/20 23:17:59;;;;;;;17.90;6.45;;;;;;;-3.84;92.76;102845.28;10502119;28;20102;-77
2021/12/20 23:23:03;;;;;;;16.50;6.90;;;;;;;-3.80;93.34;102854.09;10500428;28;20052;-77
2021/12/20 23:28:09;;;;;;;17.75;7.97;;;;;;;-3.87;92.85;102852.47;10500280;28;20499;-77
2021/12/20 23:33:17;;;;;;;27.38;9.50;;;;;;;-3.96;93.07;102850.53;10482874;28;20626;-78
2021/12/20 23:38:26;;;;;;;14.75;7.28;;;;;;;-4.22;92.38;102845.84;10499935;28;20044;-79
2021/12/20 23:43:32;;;;;;;19.23;7.68;;;;;;;-4.20;93.40;102842.81;10482628;28;20045;-78
2021/12/20 23:48:34;;;;;;;24.23;9.20;;;;;;;-4.11;93.48;102840.47;10482449;28;20054;-77
2021/12/20 23:53:36;;;;;;;19.05;7.03;;;;;;;-4.17;93.55;102840.66;10492787;28;20049;-77
2021/12/20 23:58:38;;;;;;;15.02;7.00;;;;;;;-4.13;93.01;102841.03;10429824;28;20055;-78
